sensor_id;sensor_type;location;lat;lon;timestamp;temperature;humidity
2435;DHT22;1228;51.022;6.764;2023-12-04T00:00:04;0.50;99.90
2435;DHT22;1228;51.022;6.764;2023-12-04T00:02:30;0.50;99.90
2435;DHT22;1228;51.022;6.764;2023-12-04T00:04:55;0.50;99.90
2435;DHT22;1228;51.022;6.764;2023-12-04T00:07:21;0.50;99.90
2435;DHT22;1228;51.022;6.764;2023-12-04T00:09:47;0.50;99.90
2435;DHT22;1228;51.022;6.764;2023-12-04T00:12:12;0.50;99.90
2435;DHT22;1228;51.022;6.764;2023-12-04T00:14:38;0.50;99.90
2435;DHT22;1228;51.022;6.764;2023-12-04T00:17:03;0.50;99.90
2435;DHT22;1228;51.022;6.764;2023-12-04T00:19:29;0.50;99.90
2435;DHT22;1228;51.022;6.764;2023-12-04T00:21:55;0.50;99.90
2435;DHT22;1228;51.022;6.764;2023-12-04T00:24:20;0.50;99.90
2435;DHT22;1228;51.022;6.764;2023-12-04T00:26:46;0.50;99.90
2435;DHT22;1228;51.022;6.764;2023-12-04T00:29:11;0.50;99.90
2435;DHT22;1228;51.022;6.764;2023-12-04T00:31:37;0.50;99.90
2435;DHT22;1228;51.022;6.764;2023-12-04T00:34:02;0.50;99.90
2435;DHT22;1228;51.022;6.764;2023-12-04T00:36:28;0.60;99.90
2435;DHT22;1228;51.022;6.764;2023-12-04T00:38:54;0.60;99.90
2435;DHT22;1228;51.022;6.764;2023-12-04T00:41:19;0.60;99.90
2435;DHT22;1228;51.022;6.764;2023-12-04T00:43:45;0.60;99.90
2435;DHT22;1228;51.022;6.764;2023-12-04T00:46:10;0.50;99.90
2435;DHT22;1228;51.022;6.764;2023-12-04T00:48:36;0.50;99.90
2435;DHT22;1228;51.022;6.764;2023-12-04T00:51:01;0.50;99.90
2435;DHT22;1228;51.022;6.764;2023-12-04T00:53:27;0.50;99.90
2435;DHT22;1228;51.022;6.764;2023-12-04T00:55:53;0.40;99.90
2435;DHT22;1228;51.022;6.764;2023-12-04T00:58:18;0.40;99.90
2435;DHT22;1228;51.022;6.764;2023-12-04T01:00:44;0.40;99.90
2435;DHT22;1228;51.022;6.764;2023-12-04T01:03:09;0.30;99.90
2435;DHT22;1228;51.022;6.764;2023-12-04T01:05:35;0.30;99.90
2435;DHT22;1228;51.022;6.764;2023-12-04T01:08:00;0.30;99.90
2435;DHT22;1228;51.022;6.764;2023-12-04T01:10:26;0.30;99.90
2435;DHT22;1228;51.022;6.764;2023-12-04T01:12:52;0.30;99.90
2435;DHT22;1228;51.022;6.764;2023-12-04T01:15:17;0.30;99.90
2435;DHT22;1228;51.022;6.764;2023-12-04T01:17:43;0.20;99.90
2435;DHT22;1228;51.022;6.764;2023-12-04T01:20:09;0.20;99.90
2435;DHT22;1228;51.022;6.764;2023-12-04T01:22:34;0.20;99.90
2435;DHT22;1228;51.022;6.764;2023-12-04T01:25:00;0.20;99.90
2435;DHT22;1228;51.022;6.764;2023-12-04T01:27:26;0.20;99.90
2435;DHT22;1228;51.022;6.764;2023-12-04T01:29:51;0.20;99.90
2435;DHT22;1228;51.022;6.764;2023-12-04T01:32:17;0.20;99.90
2435;DHT22;1228;51.022;6.764;2023-12-04T01:34:42;0.20;99.90
2435;DHT22;1228;51.022;6.764;2023-12-04T01:37:08;0.20;99.90
2435;DHT22;1228;51.022;6.764;2023-12-04T01:39:34;0.20;99.90
2435;DHT22;1228;51.022;6.764;2023-12-04T01:41:59;0.30;99.90
2435;DHT22;1228;51.022;6.764;2023-12-04T01:44:25;0.30;99.90
2435;DHT22;1228;51.022;6.764;2023-12-04T01:46:51;0.30;99.90
2435;DHT22;1228;51.022;6.764;2023-12-04T01:49:17;0.30;99.90
2435;DHT22;1228;51.022;6.764;2023-12-04T01:51:43;0.30;99.90
2435;DHT22;1228;51.022;6.764;2023-12-04T01:54:09;0.30;99.90
2435;DHT22;1228;51.022;6.764;2023-12-04T01:56:36;0.30;99.90
2435;DHT22;1228;51.022;6.764;2023-12-04T01:59:03;0.40;99.90
2435;DHT22;1228;51.022;6.764;2023-12-04T02:01:29;0.40;99.90
2435;DHT22;1228;51.022;6.764;2023-12-04T02:03:56;0.40;99.90
2435;DHT22;1228;51.022;6.764;2023-12-04T02:06:22;0.40;99.90
2435;DHT22;1228;51.022;6.764;2023-12-04T02:08:48;0.40;99.90
2435;DHT22;1228;51.022;6.764;2023-12-04T02:11:14;0.40;99.90
2435;DHT22;1228;51.022;6.764;2023-12-04T02:13:40;0.40;99.90
2435;DHT22;1228;51.022;6.764;2023-12-04T02:16:09;0.40;99.90
2435;DHT22;1228;51.022;6.764;2023-12-04T02:18:35;0.40;99.90
2435;DHT22;1228;51.022;6.764;2023-12-04T02:21:02;0.40;99.90
2435;DHT22;1228;51.022;6.764;2023-12-04T02:23:28;0.40;99.90
2435;DHT22;1228;51.022;6.764;2023-12-04T02:26:03;0.40;99.90
2435;DHT22;1228;51.022;6.764;2023-12-04T02:28:33;0.40;99.90
2435;DHT22;1228;51.022;6.764;2023-12-04T02:30:59;0.40;99.90
2435;DHT22;1228;51.022;6.764;2023-12-04T02:33:26;0.40;99.90
2435;DHT22;1228;51.022;6.764;2023-12-04T02:35:53;0.40;99.90
2435;DHT22;1228;51.022;6.764;2023-12-04T02:38:19;0.40;99.90
2435;DHT22;1228;51.022;6.764;2023-12-04T02:40:46;0.40;99.90
2435;DHT22;1228;51.022;6.764;2023-12-04T02:43:11;0.40;99.90
2435;DHT22;1228;51.022;6.764;2023-12-04T02:45:37;0.40;99.90
2435;DHT22;1228;51.022;6.764;2023-12-04T02:48:03;0.40;99.90
2435;DHT22;1228;51.022;6.764;2023-12-04T02:50:29;0.40;99.90
2435;DHT22;1228;51.022;6.764;2023-12-04T02:52:54;0.40;99.90
2435;DHT22;1228;51.022;6.764;2023-12-04T02:55:20;0.40;99.90
2435;DHT22;1228;51.022;6.764;2023-12-04T02:57:45;0.40;99.90
2435;DHT22;1228;51.022;6.764;2023-12-04T03:00:11;0.40;99.90
2435;DHT22;1228;51.022;6.764;2023-12-04T03:02:37;0.40;99.90
2435;DHT22;1228;51.022;6.764;2023-12-04T03:05:03;0.30;99.90
2435;DHT22;1228;51.022;6.764;2023-12-04T03:07:28;0.30;99.90
2435;DHT22;1228;51.022;6.764;2023-12-04T03:09:54;0.30;99.90
2435;DHT22;1228;51.022;6.764;2023-12-04T03:12:19;0.30;99.90
2435;DHT22;1228;51.022;6.764;2023-12-04T03:14:45;0.30;99.90
2435;DHT22;1228;51.022;6.764;2023-12-04T03:17:11;0.30;99.90
2435;DHT22;1228;51.022;6.764;2023-12-04T03:19:36;0.30;99.90
2435;DHT22;1228;51.022;6.764;2023-12-04T03:22:02;0.30;99.90
2435;DHT22;1228;51.022;6.764;2023-12-04T03:24:27;0.30;99.90
2435;DHT22;1228;51.022;6.764;2023-12-04T03:26:53;0.20;99.90
2435;DHT22;1228;51.022;6.764;2023-12-04T03:29:19;0.30;99.90
2435;DHT22;1228;51.022;6.764;2023-12-04T03:31:44;0.30;99.90
2435;DHT22;1228;51.022;6.764;2023-12-04T03:34:10;0.30;99.90
2435;DHT22;1228;51.022;6.764;2023-12-04T03:36:35;0.30;99.90
2435;DHT22;1228;51.022;6.764;2023-12-04T03:39:01;0.30;99.90
2435;DHT22;1228;51.022;6.764;2023-12-04T03:41:26;0.20;99.90
2435;DHT22;1228;51.022;6.764;2023-12-04T03:43:52;0.30;99.90
2435;DHT22;1228;51.022;6.764;2023-12-04T03:46:17;0.20;99.90
2435;DHT22;1228;51.022;6.764;2023-12-04T03:48:43;0.30;99.90
2435;DHT22;1228;51.022;6.764;2023-12-04T03:51:09;0.20;99.90
2435;DHT22;1228;51.022;6.764;2023-12-04T03:53:34;0.30;99.90
2435;DHT22;1228;51.022;6.764;2023-12-04T03:56:00;0.30;99.90
2435;DHT22;1228;51.022;6.764;2023-12-04T03:58:26;0.30;99.90
2435;DHT22;1228;51.022;6.764;2023-12-04T04:00:51;0.30;99.90
2435;DHT22;1228;51.022;6.764;2023-12-04T04:03:17;0.20;99.90
2435;DHT22;1228;51.022;6.764;2023-12-04T04:05:42;0.30;99.90
2435;DHT22;1228;51.022;6.764;2023-12-04T04:08:08;0.30;99.90
2435;DHT22;1228;51.022;6.764;2023-12-04T04:10:34;0.30;99.90
2435;DHT22;1228;51.022;6.764;2023-12-04T04:12:59;0.30;99.90
2435;DHT22;1228;51.022;6.764;2023-12-04T04:15:26;0.30;99.90
2435;DHT22;1228;51.022;6.764;2023-12-04T04:17:52;0.30;99.90
2435;DHT22;1228;51.022;6.764;2023-12-04T04:20:17;0.20;99.90
2435;DHT22;1228;51.022;6.764;2023-12-04T04:22:43;0.20;99.90
2435;DHT22;1228;51.022;6.764;2023-12-04T04:25:09;0.20;99.90
2435;DHT22;1228;51.022;6.764;2023-12-04T04:27:35;0.20;99.90
2435;DHT22;1228;51.022;6.764;2023-12-04T04:30:01;0.20;99.90
2435;DHT22;1228;51.022;6.764;2023-12-04T04:32:27;0.30;99.90
2435;DHT22;1228;51.022;6.764;2023-12-04T04:34:52;0.20;99.90
2435;DHT22;1228;51.022;6.764;2023-12-04T04:37:19;0.30;99.90
2435;DHT22;1228;51.022;6.764;2023-12-04T04:39:45;0.30;99.90
2435;DHT22;1228;51.022;6.764;2023-12-04T04:42:11;0.20;99.90
2435;DHT22;1228;51.022;6.764;2023-12-04T04:44:36;0.20;99.90
2435;DHT22;1228;51.022;6.764;2023-12-04T04:47:02;0.20;99.90
2435;DHT22;1228;51.022;6.764;2023-12-04T04:49:28;0.20;99.90
2435;DHT22;1228;51.022;6.764;2023-12-04T04:51:53;0.20;99.90
2435;DHT22;1228;51.022;6.764;2023-12-04T04:54:19;0.20;99.90
2435;DHT22;1228;51.022;6.764;2023-12-04T04:56:45;0.20;99.90
2435;DHT22;1228;51.022;6.764;2023-12-04T04:59:10;0.20;99.90
2435;DHT22;1228;51.022;6.764;2023-12-04T05:01:36;0.10;99.90
2435;DHT22;1228;51.022;6.764;2023-12-04T05:04:02;0.10;99.90
2435;DHT22;1228;51.022;6.764;2023-12-04T05:06:28;0.10;99.90
2435;DHT22;1228;51.022;6.764;2023-12-04T05:08:54;0.10;99.90
2435;DHT22;1228;51.022;6.764;2023-12-04T05:11:19;0.00;99.90
2435;DHT22;1228;51.022;6.764;2023-12-04T05:13:45;0.10;99.90
2435;DHT22;1228;51.022;6.764;2023-12-04T05:16:11;0.00;99.90
2435;DHT22;1228;51.022;6.764;2023-12-04T05:18:38;0.00;99.90
2435;DHT22;1228;51.022;6.764;2023-12-04T05:21:11;0.00;99.90
2435;DHT22;1228;51.022;6.764;2023-12-04T05:23:37;0.00;99.90
2435;DHT22;1228;51.022;6.764;2023-12-04T05:26:03;0.00;99.90
2435;DHT22;1228;51.022;6.764;2023-12-04T05:28:29;0.00;99.90
2435;DHT22;1228;51.022;6.764;2023-12-04T05:30:55;0.10;99.90
2435;DHT22;1228;51.022;6.764;2023-12-04T05:33:21;0.10;99.90
2435;DHT22;1228;51.022;6.764;2023-12-04T05:35:47;0.10;99.90
2435;DHT22;1228;51.022;6.764;2023-12-04T05:38:13;0.10;99.90
2435;DHT22;1228;51.022;6.764;2023-12-04T05:40:39;0.10;99.90
2435;DHT22;1228;51.022;6.764;2023-12-04T05:43:05;0.10;99.90
2435;DHT22;1228;51.022;6.764;2023-12-04T05:45:30;0.20;99.90
2435;DHT22;1228;51.022;6.764;2023-12-04T05:47:56;0.20;99.90
2435;DHT22;1228;51.022;6.764;2023-12-04T05:50:21;0.20;99.90
2435;DHT22;1228;51.022;6.764;2023-12-04T05:52:47;0.20;99.90
2435;DHT22;1228;51.022;6.764;2023-12-04T05:55:13;0.20;99.90
2435;DHT22;1228;51.022;6.764;2023-12-04T05:57:39;0.30;99.90
2435;DHT22;1228;51.022;6.764;2023-12-04T06:00:06;0.30;99.90
2435;DHT22;1228;51.022;6.764;2023-12-04T06:02:38;0.30;99.90
2435;DHT22;1228;51.022;6.764;2023-12-04T06:05:04;0.30;99.90
2435;DHT22;1228;51.022;6.764;2023-12-04T06:07:30;0.30;99.90
2435;DHT22;1228;51.022;6.764;2023-12-04T06:09:55;0.30;99.90
2435;DHT22;1228;51.022;6.764;2023-12-04T06:12:21;0.30;99.90
2435;DHT22;1228;51.022;6.764;2023-12-04T06:14:47;0.30;99.90
2435;DHT22;1228;51.022;6.764;2023-12-04T06:17:12;0.40;99.90
2435;DHT22;1228;51.022;6.764;2023-12-04T06:19:38;0.40;99.90
2435;DHT22;1228;51.022;6.764;2023-12-04T06:22:03;0.40;99.90
2435;DHT22;1228;51.022;6.764;2023-12-04T06:24:30;0.40;99.90
2435;DHT22;1228;51.022;6.764;2023-12-04T06:26:55;0.40;99.90
2435;DHT22;1228;51.022;6.764;2023-12-04T06:29:23;0.40;99.90
2435;DHT22;1228;51.022;6.764;2023-12-04T06:31:49;0.40;99.90
2435;DHT22;1228;51.022;6.764;2023-12-04T06:34:15;0.40;99.90
2435;DHT22;1228;51.022;6.764;2023-12-04T06:36:40;0.50;99.90
2435;DHT22;1228;51.022;6.764;2023-12-04T06:39:09;0.50;99.90
2435;DHT22;1228;51.022;6.764;2023-12-04T06:41:36;0.40;99.90
2435;DHT22;1228;51.022;6.764;2023-12-04T06:44:02;0.40;99.90
2435;DHT22;1228;51.022;6.764;2023-12-04T06:46:30;0.50;99.90
2435;DHT22;1228;51.022;6.764;2023-12-04T06:48:59;0.50;99.90
2435;DHT22;1228;51.022;6.764;2023-12-04T06:51:25;0.50;99.90
2435;DHT22;1228;51.022;6.764;2023-12-04T06:53:51;0.50;99.90
2435;DHT22;1228;51.022;6.764;2023-12-04T06:56:16;0.50;99.90
2435;DHT22;1228;51.022;6.764;2023-12-04T06:58:42;0.50;99.90
2435;DHT22;1228;51.022;6.764;2023-12-04T07:01:07;0.50;99.90
2435;DHT22;1228;51.022;6.764;2023-12-04T07:03:33;0.50;99.90
2435;DHT22;1228;51.022;6.764;2023-12-04T07:05:58;0.50;99.90
2435;DHT22;1228;51.022;6.764;2023-12-04T07:08:24;0.50;99.90
2435;DHT22;1228;51.022;6.764;2023-12-04T07:10:50;0.50;99.90
2435;DHT22;1228;51.022;6.764;2023-12-04T07:13:16;0.40;99.90
2435;DHT22;1228;51.022;6.764;2023-12-04T07:15:41;0.50;99.90
2435;DHT22;1228;51.022;6.764;2023-12-04T07:18:07;0.50;99.90
2435;DHT22;1228;51.022;6.764;2023-12-04T07:20:33;0.50;99.90
2435;DHT22;1228;51.022;6.764;2023-12-04T07:22:58;0.50;99.90
2435;DHT22;1228;51.022;6.764;2023-12-04T07:25:24;0.60;99.90
2435;DHT22;1228;51.022;6.764;2023-12-04T07:27:50;0.60;99.90
2435;DHT22;1228;51.022;6.764;2023-12-04T07:30:16;0.60;99.90
2435;DHT22;1228;51.022;6.764;2023-12-04T07:32:41;0.60;99.90
2435;DHT22;1228;51.022;6.764;2023-12-04T07:35:07;0.60;99.90
2435;DHT22;1228;51.022;6.764;2023-12-04T07:37:33;0.70;99.90
2435;DHT22;1228;51.022;6.764;2023-12-04T07:39:59;0.60;99.90
2435;DHT22;1228;51.022;6.764;2023-12-04T07:42:24;0.70;99.90
2435;DHT22;1228;51.022;6.764;2023-12-04T07:44:50;0.70;99.90
2435;DHT22;1228;51.022;6.764;2023-12-04T07:47:16;0.70;99.90
2435;DHT22;1228;51.022;6.764;2023-12-04T07:49:43;0.70;99.90
2435;DHT22;1228;51.022;6.764;2023-12-04T07:52:09;0.70;99.90
2435;DHT22;1228;51.022;6.764;2023-12-04T07:54:36;0.80;99.90
2435;DHT22;1228;51.022;6.764;2023-12-04T07:57:02;0.80;99.90
2435;DHT22;1228;51.022;6.764;2023-12-04T07:59:28;0.70;99.90
2435;DHT22;1228;51.022;6.764;2023-12-04T08:01:53;0.80;99.90
2435;DHT22;1228;51.022;6.764;2023-12-04T08:04:19;0.80;99.90
2435;DHT22;1228;51.022;6.764;2023-12-04T08:06:45;0.80;99.90
2435;DHT22;1228;51.022;6.764;2023-12-04T08:09:11;0.80;99.90
2435;DHT22;1228;51.022;6.764;2023-12-04T08:11:36;0.90;99.90
2435;DHT22;1228;51.022;6.764;2023-12-04T08:14:03;0.90;99.90
2435;DHT22;1228;51.022;6.764;2023-12-04T08:16:28;0.90;99.90
2435;DHT22;1228;51.022;6.764;2023-12-04T08:18:55;0.80;99.90
2435;DHT22;1228;51.022;6.764;2023-12-04T08:21:21;0.90;99.90
2435;DHT22;1228;51.022;6.764;2023-12-04T08:23:46;0.90;99.90
2435;DHT22;1228;51.022;6.764;2023-12-04T08:26:12;0.90;99.90
2435;DHT22;1228;51.022;6.764;2023-12-04T08:28:38;0.90;99.90
2435;DHT22;1228;51.022;6.764;2023-12-04T08:31:08;0.80;99.90
2435;DHT22;1228;51.022;6.764;2023-12-04T08:33:34;0.90;99.90
2435;DHT22;1228;51.022;6.764;2023-12-04T08:36:03;0.90;99.90
2435;DHT22;1228;51.022;6.764;2023-12-04T08:38:28;0.90;99.90
2435;DHT22;1228;51.022;6.764;2023-12-04T08:40:54;0.90;99.90
2435;DHT22;1228;51.022;6.764;2023-12-04T08:43:20;0.90;99.90
2435;DHT22;1228;51.022;6.764;2023-12-04T08:45:45;1.00;99.90
2435;DHT22;1228;51.022;6.764;2023-12-04T08:48:11;0.90;99.90
2435;DHT22;1228;51.022;6.764;2023-12-04T08:50:37;1.00;99.90
2435;DHT22;1228;51.022;6.764;2023-12-04T08:53:06;1.00;99.90
2435;DHT22;1228;51.022;6.764;2023-12-04T08:55:32;1.00;99.90
2435;DHT22;1228;51.022;6.764;2023-12-04T08:57:57;1.10;99.90
2435;DHT22;1228;51.022;6.764;2023-12-04T09:00:23;1.10;99.90
2435;DHT22;1228;51.022;6.764;2023-12-04T09:02:48;1.10;99.90
2435;DHT22;1228;51.022;6.764;2023-12-04T09:05:14;1.10;99.90
2435;DHT22;1228;51.022;6.764;2023-12-04T09:07:40;1.10;99.90
2435;DHT22;1228;51.022;6.764;2023-12-04T09:10:06;1.20;99.90
2435;DHT22;1228;51.022;6.764;2023-12-04T09:12:32;1.20;99.90
2435;DHT22;1228;51.022;6.764;2023-12-04T09:14:57;1.30;99.90
2435;DHT22;1228;51.022;6.764;2023-12-04T09:17:23;1.20;99.90
2435;DHT22;1228;51.022;6.764;2023-12-04T09:19:49;1.20;99.90
2435;DHT22;1228;51.022;6.764;2023-12-04T09:22:14;1.20;99.90
2435;DHT22;1228;51.022;6.764;2023-12-04T09:24:40;1.20;99.90
2435;DHT22;1228;51.022;6.764;2023-12-04T09:27:05;1.20;99.90
2435;DHT22;1228;51.022;6.764;2023-12-04T09:29:34;1.20;99.90
2435;DHT22;1228;51.022;6.764;2023-12-04T09:31:59;1.20;99.90
2435;DHT22;1228;51.022;6.764;2023-12-04T09:34:25;1.20;99.90
2435;DHT22;1228;51.022;6.764;2023-12-04T09:36:51;1.30;99.90
2435;DHT22;1228;51.022;6.764;2023-12-04T09:39:16;1.30;99.90
2435;DHT22;1228;51.022;6.764;2023-12-04T09:41:43;1.40;99.90
2435;DHT22;1228;51.022;6.764;2023-12-04T09:44:09;1.40;99.90
2435;DHT22;1228;51.022;6.764;2023-12-04T09:46:35;1.40;99.90
2435;DHT22;1228;51.022;6.764;2023-12-04T09:49:02;1.50;99.90
2435;DHT22;1228;51.022;6.764;2023-12-04T09:51:28;1.60;99.90
2435;DHT22;1228;51.022;6.764;2023-12-04T09:53:54;1.60;99.90
2435;DHT22;1228;51.022;6.764;2023-12-04T09:56:23;1.60;99.90
2435;DHT22;1228;51.022;6.764;2023-12-04T09:58:53;1.70;99.90
2435;DHT22;1228;51.022;6.764;2023-12-04T10:01:23;1.70;99.90
2435;DHT22;1228;51.022;6.764;2023-12-04T10:03:50;1.70;99.90
2435;DHT22;1228;51.022;6.764;2023-12-04T10:06:16;1.70;99.90
2435;DHT22;1228;51.022;6.764;2023-12-04T10:08:45;1.70;99.90
2435;DHT22;1228;51.022;6.764;2023-12-04T10:11:13;1.80;99.90
2435;DHT22;1228;51.022;6.764;2023-12-04T10:13:42;1.80;99.90
2435;DHT22;1228;51.022;6.764;2023-12-04T10:16:08;1.80;99.90
2435;DHT22;1228;51.022;6.764;2023-12-04T10:18:34;1.80;99.90
2435;DHT22;1228;51.022;6.764;2023-12-04T10:20:59;1.80;99.90
2435;DHT22;1228;51.022;6.764;2023-12-04T10:23:42;1.70;99.90
2435;DHT22;1228;51.022;6.764;2023-12-04T10:26:08;1.80;99.90
2435;DHT22;1228;51.022;6.764;2023-12-04T10:28:35;1.80;99.90
2435;DHT22;1228;51.022;6.764;2023-12-04T10:31:01;1.80;99.90
2435;DHT22;1228;51.022;6.764;2023-12-04T10:33:29;1.80;99.90
2435;DHT22;1228;51.022;6.764;2023-12-04T10:35:55;1.70;99.90
2435;DHT22;1228;51.022;6.764;2023-12-04T10:38:21;1.70;99.90
2435;DHT22;1228;51.022;6.764;2023-12-04T10:40:46;1.70;99.90
2435;DHT22;1228;51.022;6.764;2023-12-04T10:43:19;1.70;99.90
2435;DHT22;1228;51.022;6.764;2023-12-04T10:45:48;1.70;99.90
2435;DHT22;1228;51.022;6.764;2023-12-04T10:48:16;1.70;99.90
2435;DHT22;1228;51.022;6.764;2023-12-04T10:50:43;1.70;99.90
2435;DHT22;1228;51.022;6.764;2023-12-04T10:53:11;1.70;99.90
2435;DHT22;1228;51.022;6.764;2023-12-04T10:55:38;1.70;99.90
2435;DHT22;1228;51.022;6.764;2023-12-04T10:58:07;1.60;99.90
2435;DHT22;1228;51.022;6.764;2023-12-04T11:00:36;1.60;99.90
2435;DHT22;1228;51.022;6.764;2023-12-04T11:03:09;1.50;99.90
2435;DHT22;1228;51.022;6.764;2023-12-04T11:05:39;1.50;99.90
2435;DHT22;1228;51.022;6.764;2023-12-04T11:08:07;1.50;99.90
2435;DHT22;1228;51.022;6.764;2023-12-04T11:10:39;1.50;99.90
2435;DHT22;1228;51.022;6.764;2023-12-04T11:13:12;1.50;99.90
2435;DHT22;1228;51.022;6.764;2023-12-04T11:15:42;1.50;99.90
2435;DHT22;1228;51.022;6.764;2023-12-04T11:18:13;1.50;99.90
2435;DHT22;1228;51.022;6.764;2023-12-04T11:20:48;1.50;99.90
2435;DHT22;1228;51.022;6.764;2023-12-04T11:23:16;1.50;99.90
2435;DHT22;1228;51.022;6.764;2023-12-04T11:25:43;1.50;99.90
2435;DHT22;1228;51.022;6.764;2023-12-04T11:28:10;1.60;99.90
2435;DHT22;1228;51.022;6.764;2023-12-04T11:30:36;1.60;99.90
2435;DHT22;1228;51.022;6.764;2023-12-04T11:33:04;1.70;99.90
2435;DHT22;1228;51.022;6.764;2023-12-04T11:35:30;1.80;99.90
2435;DHT22;1228;51.022;6.764;2023-12-04T11:37:58;1.90;99.90
2435;DHT22;1228;51.022;6.764;2023-12-04T11:40:25;1.90;99.90
2435;DHT22;1228;51.022;6.764;2023-12-04T11:42:52;2.00;99.90
2435;DHT22;1228;51.022;6.764;2023-12-04T11:45:20;2.00;99.90
2435;DHT22;1228;51.022;6.764;2023-12-04T11:47:58;1.90;99.90
2435;DHT22;1228;51.022;6.764;2023-12-04T11:50:27;1.90;99.90
2435;DHT22;1228;51.022;6.764;2023-12-04T11:52:53;1.90;99.90
2435;DHT22;1228;51.022;6.764;2023-12-04T11:55:23;1.90;99.90
2435;DHT22;1228;51.022;6.764;2023-12-04T11:57:52;1.80;99.90
2435;DHT22;1228;51.022;6.764;2023-12-04T12:00:20;1.70;99.90
2435;DHT22;1228;51.022;6.764;2023-12-04T12:05:23;1.50;99.90
2435;DHT22;1228;51.022;6.764;2023-12-04T12:07:49;1.40;99.90
2435;DHT22;1228;51.022;6.764;2023-12-04T12:10:15;1.40;99.90
2435;DHT22;1228;51.022;6.764;2023-12-04T12:12:44;1.40;99.90
2435;DHT22;1228;51.022;6.764;2023-12-04T12:15:11;1.40;99.90
2435;DHT22;1228;51.022;6.764;2023-12-04T12:17:40;1.40;99.90
2435;DHT22;1228;51.022;6.764;2023-12-04T12:20:08;1.50;99.90
2435;DHT22;1228;51.022;6.764;2023-12-04T12:22:35;1.40;99.90
2435;DHT22;1228;51.022;6.764;2023-12-04T12:25:04;1.40;99.90
2435;DHT22;1228;51.022;6.764;2023-12-04T12:27:30;1.40;99.90
2435;DHT22;1228;51.022;6.764;2023-12-04T12:29:56;1.40;99.90
2435;DHT22;1228;51.022;6.764;2023-12-04T12:32:21;1.30;99.90
2435;DHT22;1228;51.022;6.764;2023-12-04T12:34:47;1.30;99.90
2435;DHT22;1228;51.022;6.764;2023-12-04T12:37:12;1.20;99.90
2435;DHT22;1228;51.022;6.764;2023-12-04T12:39:39;1.20;99.90
2435;DHT22;1228;51.022;6.764;2023-12-04T12:42:05;1.20;99.90
2435;DHT22;1228;51.022;6.764;2023-12-04T12:44:40;1.20;99.90
2435;DHT22;1228;51.022;6.764;2023-12-04T12:47:09;1.30;99.90
2435;DHT22;1228;51.022;6.764;2023-12-04T12:49:35;1.30;99.90
2435;DHT22;1228;51.022;6.764;2023-12-04T12:52:05;1.30;99.90
2435;DHT22;1228;51.022;6.764;2023-12-04T12:54:31;1.40;99.90
2435;DHT22;1228;51.022;6.764;2023-12-04T12:56:59;1.40;99.90
2435;DHT22;1228;51.022;6.764;2023-12-04T12:59:26;1.40;99.90
2435;DHT22;1228;51.022;6.764;2023-12-04T13:01:52;1.40;99.90
2435;DHT22;1228;51.022;6.764;2023-12-04T13:04:18;1.40;99.90
2435;DHT22;1228;51.022;6.764;2023-12-04T13:06:44;1.50;99.90
2435;DHT22;1228;51.022;6.764;2023-12-04T13:09:12;1.60;99.90
2435;DHT22;1228;51.022;6.764;2023-12-04T13:11:46;1.60;99.90
2435;DHT22;1228;51.022;6.764;2023-12-04T13:14:13;1.60;99.90
2435;DHT22;1228;51.022;6.764;2023-12-04T13:16:39;1.60;99.90
2435;DHT22;1228;51.022;6.764;2023-12-04T13:19:05;1.60;99.90
2435;DHT22;1228;51.022;6.764;2023-12-04T13:21:31;1.50;99.90
2435;DHT22;1228;51.022;6.764;2023-12-04T13:23:57;1.50;99.90
2435;DHT22;1228;51.022;6.764;2023-12-04T13:26:22;1.40;99.90
2435;DHT22;1228;51.022;6.764;2023-12-04T13:28:48;1.40;99.90
2435;DHT22;1228;51.022;6.764;2023-12-04T13:31:14;1.40;99.90
2435;DHT22;1228;51.022;6.764;2023-12-04T13:33:39;1.50;99.90
2435;DHT22;1228;51.022;6.764;2023-12-04T13:36:05;1.40;99.90
2435;DHT22;1228;51.022;6.764;2023-12-04T13:38:31;1.40;99.90
2435;DHT22;1228;51.022;6.764;2023-12-04T13:40:59;1.40;99.90
2435;DHT22;1228;51.022;6.764;2023-12-04T13:43:26;1.50;99.90
2435;DHT22;1228;51.022;6.764;2023-12-04T13:46:11;1.50;99.90
2435;DHT22;1228;51.022;6.764;2023-12-04T13:48:36;1.50;99.90
2435;DHT22;1228;51.022;6.764;2023-12-04T13:51:06;1.50;99.90
2435;DHT22;1228;51.022;6.764;2023-12-04T13:53:32;1.50;99.90
2435;DHT22;1228;51.022;6.764;2023-12-04T13:55:58;1.40;99.90
2435;DHT22;1228;51.022;6.764;2023-12-04T13:58:27;1.40;99.90
2435;DHT22;1228;51.022;6.764;2023-12-04T14:01:10;1.30;99.90
2435;DHT22;1228;51.022;6.764;2023-12-04T14:03:42;1.30;99.90
2435;DHT22;1228;51.022;6.764;2023-12-04T14:06:09;1.30;99.90
2435;DHT22;1228;51.022;6.764;2023-12-04T14:08:35;1.30;99.90
2435;DHT22;1228;51.022;6.764;2023-12-04T14:11:02;1.30;99.90
2435;DHT22;1228;51.022;6.764;2023-12-04T14:13:27;1.30;99.90
2435;DHT22;1228;51.022;6.764;2023-12-04T14:15:53;1.30;99.90
2435;DHT22;1228;51.022;6.764;2023-12-04T14:18:19;1.40;99.90
2435;DHT22;1228;51.022;6.764;2023-12-04T14:20:45;1.40;99.90
2435;DHT22;1228;51.022;6.764;2023-12-04T14:23:11;1.40;99.90
2435;DHT22;1228;51.022;6.764;2023-12-04T14:25:37;1.30;99.90
2435;DHT22;1228;51.022;6.764;2023-12-04T14:28:03;1.30;99.90
2435;DHT22;1228;51.022;6.764;2023-12-04T14:30:28;1.30;99.90
2435;DHT22;1228;51.022;6.764;2023-12-04T14:32:55;1.20;99.90
2435;DHT22;1228;51.022;6.764;2023-12-04T14:35:20;1.20;99.90
2435;DHT22;1228;51.022;6.764;2023-12-04T14:37:46;1.20;99.90
2435;DHT22;1228;51.022;6.764;2023-12-04T14:40:12;1.20;99.90
2435;DHT22;1228;51.022;6.764;2023-12-04T14:42:40;1.20;99.90
2435;DHT22;1228;51.022;6.764;2023-12-04T14:45:05;1.20;99.90
2435;DHT22;1228;51.022;6.764;2023-12-04T14:47:31;1.20;99.90
2435;DHT22;1228;51.022;6.764;2023-12-04T14:49:57;1.20;99.90
2435;DHT22;1228;51.022;6.764;2023-12-04T14:52:22;1.20;99.90
2435;DHT22;1228;51.022;6.764;2023-12-04T14:54:48;1.20;99.90
2435;DHT22;1228;51.022;6.764;2023-12-04T14:57:23;1.20;99.90
2435;DHT22;1228;51.022;6.764;2023-12-04T15:00:05;1.20;99.90
2435;DHT22;1228;51.022;6.764;2023-12-04T15:02:49;1.10;99.90
2435;DHT22;1228;51.022;6.764;2023-12-04T15:05:15;1.10;99.90
2435;DHT22;1228;51.022;6.764;2023-12-04T15:08:00;1.10;99.90
2435;DHT22;1228;51.022;6.764;2023-12-04T15:10:29;1.10;99.90
2435;DHT22;1228;51.022;6.764;2023-12-04T15:13:13;1.10;99.90
2435;DHT22;1228;51.022;6.764;2023-12-04T15:15:41;1.10;99.90
2435;DHT22;1228;51.022;6.764;2023-12-04T15:18:26;1.10;99.90
2435;DHT22;1228;51.022;6.764;2023-12-04T15:21:00;1.10;99.90
2435;DHT22;1228;51.022;6.764;2023-12-04T15:23:25;1.10;99.90
2435;DHT22;1228;51.022;6.764;2023-12-04T15:25:52;1.10;99.90
2435;DHT22;1228;51.022;6.764;2023-12-04T15:28:17;1.10;99.90
2435;DHT22;1228;51.022;6.764;2023-12-04T15:30:43;1.00;99.90
2435;DHT22;1228;51.022;6.764;2023-12-04T15:33:10;1.10;99.90
2435;DHT22;1228;51.022;6.764;2023-12-04T15:35:36;1.00;99.90
2435;DHT22;1228;51.022;6.764;2023-12-04T15:38:03;1.00;99.90
2435;DHT22;1228;51.022;6.764;2023-12-04T15:40:28;1.00;99.90
2435;DHT22;1228;51.022;6.764;2023-12-04T15:42:55;1.00;99.90
2435;DHT22;1228;51.022;6.764;2023-12-04T15:45:21;1.00;99.90
2435;DHT22;1228;51.022;6.764;2023-12-04T15:47:48;1.00;99.90
2435;DHT22;1228;51.022;6.764;2023-12-04T15:50:13;1.00;99.90
2435;DHT22;1228;51.022;6.764;2023-12-04T15:52:39;1.00;99.90
2435;DHT22;1228;51.022;6.764;2023-12-04T15:55:07;1.00;99.90
2435;DHT22;1228;51.022;6.764;2023-12-04T15:57:36;1.10;99.90
2435;DHT22;1228;51.022;6.764;2023-12-04T16:00:02;1.10;99.90
2435;DHT22;1228;51.022;6.764;2023-12-04T16:02:28;1.10;99.90
2435;DHT22;1228;51.022;6.764;2023-12-04T16:04:54;1.10;99.90
2435;DHT22;1228;51.022;6.764;2023-12-04T16:07:20;1.10;99.90
2435;DHT22;1228;51.022;6.764;2023-12-04T16:09:45;1.10;99.90
2435;DHT22;1228;51.022;6.764;2023-12-04T16:12:12;1.10;99.90
2435;DHT22;1228;51.022;6.764;2023-12-04T16:14:37;1.10;99.90